Terminal Aerodrome Forecast
Issued by NWS

Home | Current Version | Previous Version | Text Only | Print | Product List | Glossary On
Versions: 1 2 3 4 5 6 7 8 9 10 11 12 13 14 15 16 17 18 19 20 21 22 23 24 25 26 27 28 29 30 31 32 33 34 35 36
000
FTUS46 KOTX 030157 AAA
TAFCOE
TAF AMD
KCOE 030157Z 0302/0324 25005KT P6SM SCT070 BKN150
     FM030400 24013G20KT P6SM VCTS SCT080CB BKN150
     FM030800 23010G17KT P6SM VCSH SCT040 BKN080
     FM031100 21011KT P6SM -SHRA BKN030 OVC050
      TEMPO 0312/0315 -SHRA BKN015 OVC030
     FM032000 22005KT P6SM -SHRA BKN040 OVC060
      AMD LTD TO CLD AND VIS=

USA.gov is the U.S. government's official web portal to all federal, state and local government web resources and services.